Time;durP1;ratioP1;P1;durP2;ratioP2;P2;SDS_P1;SDS_P2;PMS_P1;PMS_P2;Temp;Humidity;BMP_temperature;BMP_pressure;BME280_temperature;BME280_humidity;BME280_pressure;Samples;Min_cycle;Max_cycle;Signal;HPM_P1;HPM_P2
2021/12/05 00:23:25;;;;;;;10.82;3.72;;;4.40;99.90;;;;;;4988413;28;20042;-75
2021/12/05 00:25:54;;;;;;;10.70;2.60;;;4.40;99.90;;;;;;5007650;28;20491;-74
2021/12/05 00:39:31;;;;;;;12.27;2.50;;;4.40;99.90;;;;;;4980751;28;20038;-75
2021/12/05 00:53:06;;;;;;;6.00;2.65;;;4.40;99.90;;;;;;5005501;28;20558;-74
2021/12/05 00:55:57;;;;;;;7.50;2.67;;;4.40;99.90;;;;;;4987431;28;20422;-74
2021/12/05 01:16:44;;;;;;;10.88;2.92;;;4.50;99.90;;;;;;5007301;28;20053;-75
2021/12/05 01:19:13;;;;;;;4.70;2.60;;;4.50;99.90;;;;;;5001326;28;20507;-74
2021/12/05 01:21:40;;;;;;;6.82;3.20;;;4.50;99.90;;;;;;5005738;28;20406;-74
2021/12/05 01:24:23;;;;;;;12.07;2.90;;;4.50;99.90;;;;;;5005948;28;20049;-74
2021/12/05 01:27:17;;;;;;;13.35;2.97;;;4.50;99.90;;;;;;5005970;28;20141;-74
2021/12/05 02:31:35;;;;;;;10.60;3.70;;;4.40;99.90;;;;;;4987662;28;20050;-71
2021/12/05 02:41:42;;;;;;;11.20;3.42;;;4.40;99.90;;;;;;4989512;28;20718;-71
2021/12/05 02:44:20;;;;;;;7.47;4.03;;;4.40;99.90;;;;;;5006467;28;20490;-71
2021/12/05 02:46:50;;;;;;;11.70;5.00;;;4.40;99.90;;;;;;4988951;28;20493;-71
2021/12/05 02:49:17;;;;;;;11.32;3.72;;;4.40;99.90;;;;;;5007320;28;20034;-71
2021/12/05 02:51:54;;;;;;;16.30;4.43;;;4.40;99.90;;;;;;5005374;28;20046;-71
2021/12/05 02:54:23;;;;;;;7.78;3.95;;;4.40;99.90;;;;;;5001195;28;20038;-71
2021/12/05 02:56:52;;;;;;;14.32;4.00;;;4.30;99.90;;;;;;4989124;28;20487;-71
2021/12/05 03:01:48;;;;;;;9.75;4.03;;;4.30;99.90;;;;;;4992590;28;20422;-71
2021/12/05 03:04:14;;;;;;;9.57;3.95;;;4.30;99.90;;;;;;5008896;28;20064;-71
2021/12/05 03:06:49;;;;;;;10.03;5.10;;;4.30;99.90;;;;;;4987403;28;20642;-71
2021/12/05 03:09:15;;;;;;;12.32;4.28;;;4.30;99.90;;;;;;4993423;28;20030;-71
2021/12/05 03:11:43;;;;;;;11.33;4.40;;;4.30;99.90;;;;;;4992082;28;20049;-71
2021/12/05 03:14:09;;;;;;;10.25;4.10;;;4.20;99.90;;;;;;5008507;28;21497;-71
2021/12/05 03:16:36;;;;;;;12.17;4.63;;;4.20;99.90;;;;;;5002354;28;20034;-71
2021/12/05 03:19:04;;;;;;;13.55;4.40;;;4.20;99.90;;;;;;5008543;28;20153;-71
2021/12/05 03:21:30;;;;;;;12.68;4.65;;;4.20;99.90;;;;;;5007975;28;20434;-71
2021/12/05 03:23:56;;;;;;;12.10;4.43;;;4.20;99.90;;;;;;5010236;28;20034;-71
2021/12/05 03:26:26;;;;;;;12.32;5.28;;;4.20;99.90;;;;;;5009808;28;20108;-71
2021/12/05 03:28:55;;;;;;;13.60;4.72;;;4.20;99.90;;;;;;5003073;28;20045;-71
2021/12/05 03:31:22;;;;;;;14.52;5.10;;;4.20;99.90;;;;;;5007333;28;20050;-71
2021/12/05 03:33:48;;;;;;;10.43;4.60;;;4.10;99.90;;;;;;4990293;28;20092;-71
2021/12/05 03:36:14;;;;;;;11.70;5.07;;;4.10;99.90;;;;;;4991931;28;20045;-71
2021/12/05 03:38:41;;;;;;;12.40;5.03;;;4.10;99.90;;;;;;5008295;28;20026;-71
2021/12/05 03:41:07;;;;;;;11.82;4.57;;;4.10;99.90;;;;;;5010461;28;20467;-71
2021/12/05 03:43:34;;;;;;;9.30;5.03;;;4.10;99.90;;;;;;4991469;28;20089;-71
2021/12/05 03:46:00;;;;;;;18.85;6.43;;;4.10;99.90;;;;;;5008302;28;20417;-71
2021/12/05 03:48:29;;;;;;;15.82;5.90;;;4.10;99.90;;;;;;4990600;28;20046;-71
2021/12/05 03:50:56;;;;;;;19.75;5.45;;;4.10;99.90;;;;;;5009082;28;20049;-71
2021/12/05 03:53:22;;;;;;;13.98;5.47;;;4.10;99.90;;;;;;5009371;28;20070;-71
2021/12/05 03:55:51;;;;;;;15.45;5.75;;;4.10;99.90;;;;;;4986676;28;20073;-71
2021/12/05 03:58:18;;;;;;;15.20;5.15;;;4.10;99.90;;;;;;5005384;28;20050;-71
2021/12/05 04:00:50;;;;;;;15.70;5.38;;;4.00;99.90;;;;;;5008891;28;20081;-71
2021/12/05 04:03:17;;;;;;;12.80;5.18;;;4.10;99.90;;;;;;5005813;28;20042;-71
2021/12/05 04:05:44;;;;;;;12.68;5.47;;;4.00;99.90;;;;;;5006764;28;20124;-71
2021/12/05 04:08:12;;;;;;;20.33;6.22;;;4.00;99.90;;;;;;4989534;28;20061;-71
2021/12/05 04:10:42;;;;;;;16.60;6.35;;;4.00;99.90;;;;;;4985258;28;20080;-71
2021/12/05 04:13:08;;;;;;;19.83;6.40;;;4.00;99.90;;;;;;5005031;28;20333;-71
2021/12/05 04:15:34;;;;;;;12.82;6.35;;;3.90;99.90;;;;;;4991086;28;20483;-71
2021/12/05 04:18:00;;;;;;;10.38;5.97;;;3.90;99.90;;;;;;4989536;28;20074;-71
2021/12/05 04:20:28;;;;;;;22.10;6.33;;;3.90;99.90;;;;;;5005253;28;20530;-71
2021/12/05 04:22:55;;;;;;;16.38;6.00;;;3.90;99.90;;;;;;5007937;28;20277;-71
2021/12/05 04:25:21;;;;;;;15.55;6.20;;;3.90;99.90;;;;;;4990788;28;20042;-71
2021/12/05 04:27:49;;;;;;;15.70;6.47;;;3.80;99.90;;;;;;5004210;28;20046;-71
2021/12/05 04:30:18;;;;;;;14.45;6.43;;;3.80;99.90;;;;;;5006419;28;20423;-71
2021/12/05 04:32:45;;;;;;;18.00;6.65;;;3.80;99.90;;;;;;5007876;28;20046;-71
2021/12/05 04:35:11;;;;;;;15.43;7.40;;;3.80;99.90;;;;;;4988984;28;20493;-71
2021/12/05 04:37:37;;;;;;;18.48;6.95;;;3.80;99.90;;;;;;5007277;28;20164;-71
2021/12/05 04:40:05;;;;;;;17.10;7.73;;;3.80;99.90;;;;;;5007156;28;20157;-71
2021/12/05 04:42:31;;;;;;;17.63;7.38;;;3.80;99.90;;;;;;4989823;28;20073;-71
2021/12/05 04:44:56;;;;;;;21.40;6.90;;;3.80;99.90;;;;;;5008736;28;20154;-71
2021/12/05 04:47:22;;;;;;;16.83;7.23;;;3.80;99.90;;;;;;5003091;28;20139;-71
2021/12/05 04:49:49;;;;;;;17.33;7.10;;;3.70;99.90;;;;;;5006311;28;20030;-71
2021/12/05 04:52:15;;;;;;;15.18;7.07;;;3.70;99.90;;;;;;5002488;28;20045;-71
2021/12/05 04:54:41;;;;;;;15.60;7.20;;;3.80;99.90;;;;;;5006764;28;20030;-71
2021/12/05 04:57:07;;;;;;;26.90;7.93;;;3.70;99.90;;;;;;5000985;28;20049;-71
2021/12/05 04:59:36;;;;;;;22.38;7.82;;;3.70;99.90;;;;;;5000399;28;20068;-71
2021/12/05 05:02:05;;;;;;;23.42;7.82;;;3.70;99.90;;;;;;5001006;28;20042;-71
2021/12/05 05:04:38;;;;;;;20.75;6.97;;;3.70;99.90;;;;;;5006939;28;20039;-71
2021/12/05 05:07:08;;;;;;;17.95;7.70;;;3.70;99.90;;;;;;5004786;28;20038;-71
2021/12/05 05:09:34;;;;;;;19.52;7.72;;;3.70;99.90;;;;;;5006468;28;20044;-71
2021/12/05 05:11:59;;;;;;;17.90;7.33;;;3.60;99.90;;;;;;4980284;28;20475;-71
2021/12/05 05:14:26;;;;;;;20.37;7.20;;;3.60;99.90;;;;;;4971855;28;20487;-71
2021/12/05 05:16:53;;;;;;;21.70;6.80;;;3.60;99.90;;;;;;5007515;28;20128;-71
2021/12/05 05:19:23;;;;;;;16.95;7.30;;;3.60;99.90;;;;;;4989752;28;20406;-71
2021/12/05 05:22:37;;;;;;;22.08;6.75;;;3.50;99.90;;;;;;4988622;28;20062;-71
2021/12/05 05:44:02;;;;;;;18.35;6.50;;;3.40;99.90;;;;;;5006778;28;20104;-73
2021/12/05 05:46:40;;;;;;;16.20;6.82;;;3.40;99.90;;;;;;4986142;28;20054;-73
2021/12/05 05:49:22;;;;;;;19.85;7.55;;;3.40;99.90;;;;;;4990058;28;20049;-73
2021/12/05 05:51:48;;;;;;;19.92;6.20;;;3.40;99.90;;;;;;5005093;28;20042;-73
2021/12/05 05:54:15;;;;;;;24.83;6.65;;;3.40;99.90;;;;;;4970002;28;20092;-73
2021/12/05 05:56:44;;;;;;;24.17;7.20;;;3.40;99.90;;;;;;4986268;28;20042;-73
2021/12/05 05:59:21;;;;;;;13.32;6.22;;;3.50;99.90;;;;;;4986117;28;20511;-73
2021/12/05 06:04:16;;;;;;;15.05;6.32;;;3.40;99.90;;;;;;5004806;28;20139;-73
2021/12/05 06:06:41;;;;;;;19.93;6.67;;;3.40;99.90;;;;;;5004752;28;20070;-73
2021/12/05 06:09:08;;;;;;;14.60;5.90;;;3.30;99.90;;;;;;5005492;28;20037;-73
2021/12/05 06:11:34;;;;;;;12.75;6.07;;;3.40;99.90;;;;;;4999544;28;20518;-73
2021/12/05 06:14:01;;;;;;;13.25;6.75;;;3.40;99.90;;;;;;4990098;28;20041;-73
2021/12/05 06:16:27;;;;;;;17.80;6.55;;;3.40;99.90;;;;;;4988719;28;20506;-73
2021/12/05 06:18:53;;;;;;;15.30;6.70;;;3.40;99.90;;;;;;4991400;28;20045;-73
2021/12/05 06:21:18;;;;;;;18.63;6.33;;;3.40;99.90;;;;;;5004733;28;20049;-73
2021/12/05 06:23:45;;;;;;;18.03;6.63;;;3.40;99.90;;;;;;4988330;28;20284;-73
2021/12/05 06:26:13;;;;;;;14.10;5.95;;;3.40;99.90;;;;;;4973534;28;20131;-73
2021/12/05 06:28:41;;;;;;;15.85;6.03;;;3.40;99.90;;;;;;5001449;28;20414;-73
2021/12/05 06:31:22;;;;;;;19.52;6.68;;;3.40;99.90;;;;;;5004766;28;20809;-73
2021/12/05 06:37:09;;;;;;;14.80;6.43;;;3.50;99.90;;;;;;5010564;28;20466;-73
2021/12/05 06:47:28;;;;;;;14.30;6.30;;;3.50;99.90;;;;;;5010915;28;20073;-74
2021/12/05 06:49:55;;;;;;;15.20;5.75;;;3.50;99.90;;;;;;4975795;28;20052;-73
2021/12/05 06:52:21;;;;;;;18.67;6.35;;;3.50;99.90;;;;;;4976257;28;20056;-73
2021/12/05 06:54:48;;;;;;;18.63;5.32;;;3.50;99.90;;;;;;4992112;28;20073;-73
2021/12/05 06:57:13;;;;;;;16.52;5.43;;;3.50;99.90;;;;;;4989446;28;20046;-73
2021/12/05 06:59:41;;;;;;;23.23;6.70;;;3.50;99.90;;;;;;5006768;28;20037;-73
2021/12/05 07:02:09;;;;;;;17.08;5.65;;;3.50;99.90;;;;;;5009722;28;20100;-73
2021/12/05 07:07:02;;;;;;;14.02;5.32;;;3.50;99.90;;;;;;5003707;28;20054;-73
2021/12/05 07:09:28;;;;;;;12.57;5.60;;;3.50;99.90;;;;;;5010214;28;20490;-72
2021/12/05 07:20:07;;;;;;;12.88;5.47;;;3.50;99.90;;;;;;4986887;28;20057;-70
2021/12/05 07:22:52;;;;;;;19.83;5.63;;;3.50;99.90;;;;;;4991085;28;20555;-70
2021/12/05 07:25:40;;;;;;;14.68;5.93;;;3.60;99.90;;;;;;4991510;28;20110;-70
2021/12/05 07:41:55;;;;;;;15.35;4.82;;;3.60;99.90;;;;;;5006985;28;20061;-70
2021/12/05 07:44:21;;;;;;;12.35;5.20;;;3.60;99.90;;;;;;5009374;28;20044;-70
2021/12/05 07:46:47;;;;;;;19.10;5.03;;;3.60;99.90;;;;;;5009464;28;20030;-70
2021/12/05 07:49:15;;;;;;;17.33;5.50;;;3.60;99.90;;;;;;5007652;28;20041;-70
2021/12/05 07:51:45;;;;;;;9.90;4.53;;;3.70;99.90;;;;;;4998747;28;20050;-71
2021/12/05 07:54:25;;;;;;;15.32;5.35;;;3.60;99.90;;;;;;5010225;28;20422;-70
2021/12/05 07:57:02;;;;;;;12.57;5.38;;;3.60;99.90;;;;;;5006902;28;20510;-70
2021/12/05 08:15:47;;;;;;;15.00;4.85;;;3.70;99.90;;;;;;5004960;28;20050;-70
2021/12/05 08:18:13;;;;;;;15.18;5.35;;;3.80;99.90;;;;;;4974674;28;20415;-71
2021/12/05 08:20:41;;;;;;;19.08;5.00;;;3.80;99.90;;;;;;4991151;28;20042;-70
2021/12/05 08:23:08;;;;;;;13.60;5.30;;;3.80;99.90;;;;;;5007855;28;20041;-70
2021/12/05 08:25:36;;;;;;;13.05;4.72;;;3.80;99.90;;;;;;4991633;28;20036;-70
2021/12/05 08:30:46;;;;;;;19.33;6.05;;;3.90;99.90;;;;;;5008609;28;20056;-70
2021/12/05 08:33:27;;;;;;;12.25;5.18;;;3.90;99.90;;;;;;4988172;23;20046;-74
2021/12/05 09:24:35;;;;;;;15.77;6.25;;;4.40;99.90;;;;;;4975856;28;20105;-74
2021/12/05 09:27:27;;;;;;;18.08;6.68;;;4.30;99.90;;;;;;4974032;28;20418;-75
2021/12/05 10:03:09;;;;;;;16.42;6.88;;;4.60;99.90;;;;;;4930332;29;20055;-74
2021/12/05 10:08:43;;;;;;;19.67;7.07;;;4.70;99.90;;;;;;4968210;28;20190;-75
2021/12/05 10:11:31;;;;;;;18.50;6.70;;;4.70;99.90;;;;;;4972829;28;20081;-73
2021/12/05 10:14:14;;;;;;;17.80;6.05;;;4.70;99.90;;;;;;4968342;28;20054;-75
2021/12/05 10:34:37;;;;;;;17.45;6.68;;;5.00;99.90;;;;;;4970601;28;20125;-74
2021/12/05 10:37:10;;;;;;;17.30;6.95;;;5.10;99.90;;;;;;4973739;28;20050;-74
2021/12/05 10:39:37;;;;;;;12.00;6.18;;;5.00;99.90;;;;;;4954135;28;20043;-75
2021/12/05 10:42:34;;;;;;;15.82;6.35;;;5.10;99.90;;;;;;4987651;28;20049;-75
2021/12/05 10:45:00;;;;;;;14.85;5.78;;;5.10;99.90;;;;;;4953698;28;20658;-73
2021/12/05 10:47:41;;;;;;;14.83;6.70;;;5.10;99.90;;;;;;4971696;28;20081;-74
2021/12/05 10:50:36;;;;;;;15.35;6.70;;;5.00;99.90;;;;;;4971246;28;20042;-74
2021/12/05 10:53:27;;;;;;;12.98;6.57;;;5.00;99.90;;;;;;4960767;28;20051;-74
2021/12/05 10:56:08;;;;;;;11.77;5.93;;;5.00;99.90;;;;;;4970695;28;20088;-74
2021/12/05 10:59:00;;;;;;;11.52;5.75;;;5.00;99.90;;;;;;4962819;28;20046;-75
2021/12/05 11:01:45;;;;;;;12.73;6.65;;;5.10;99.90;;;;;;4976267;28;20053;-74
2021/12/05 11:04:18;;;;;;;15.18;5.63;;;5.10;99.90;;;;;;4987036;28;20097;-75
2021/12/05 11:06:58;;;;;;;19.23;6.15;;;5.00;99.90;;;;;;4965078;28;20121;-74
2021/12/05 11:09:46;;;;;;;16.00;6.80;;;5.00;99.90;;;;;;4971675;28;20129;-73
2021/12/05 11:12:16;;;;;;;11.45;6.03;;;5.00;99.90;;;;;;4991616;28;20045;-75
2021/12/05 11:14:47;;;;;;;15.52;6.60;;;5.00;99.90;;;;;;4958942;28;20164;-74
2021/12/05 11:17:24;;;;;;;18.83;5.97;;;5.00;99.90;;;;;;4990748;28;20042;-73
2021/12/05 11:19:54;;;;;;;;;;;4.90;99.90;;;;;;4994301;28;20084;-73
2021/12/05 11:22:27;;;;;;;14.32;6.78;;;4.90;99.90;;;;;;4976632;28;19969;-73
2021/12/05 11:24:58;;;;;;;12.32;5.75;;;4.90;99.90;;;;;;4982101;28;20046;-74
2021/12/05 11:27:35;;;;;;;13.77;6.90;;;5.00;99.90;;;;;;4969509;28;20070;-74
2021/12/05 11:30:04;;;;;;;19.98;7.90;;;5.00;99.90;;;;;;4991035;28;20105;-74
2021/12/05 11:32:38;;;;;;;16.85;7.32;;;4.90;99.90;;;;;;4972077;28;20050;-74
2021/12/05 11:35:15;;;;;;;18.65;7.40;;;5.00;99.90;;;;;;4968852;28;20035;-74
2021/12/05 11:37:54;;;;;;;16.38;6.47;;;5.00;99.90;;;;;;4974220;28;20049;-74
2021/12/05 11:40:21;;;;;;;13.90;6.47;;;5.00;99.90;;;;;;4968159;28;20116;-73
2021/12/05 11:43:00;;;;;;;16.42;6.68;;;5.00;99.90;;;;;;4974854;28;20050;-73
2021/12/05 11:45:27;;;;;;;17.90;7.20;;;5.00;99.90;;;;;;4973613;28;20042;-75
2021/12/05 11:47:53;;;;;;;16.17;6.70;;;5.00;99.90;;;;;;4991028;28;20105;-73
2021/12/05 11:50:28;;;;;;;13.30;5.47;;;5.00;99.90;;;;;;4973251;28;20104;-75
2021/12/05 11:52:54;;;;;;;16.77;6.97;;;5.00;99.90;;;;;;4976707;28;20074;-74
2021/12/05 11:55:28;;;;;;;18.80;6.00;;;5.10;99.90;;;;;;4974368;28;20085;-74
2021/12/05 11:57:58;;;;;;;15.98;6.05;;;5.10;99.90;;;;;;4975014;28;20601;-74
2021/12/05 12:00:25;;;;;;;13.85;6.95;;;5.10;99.90;;;;;;4976509;28;20427;-75
2021/12/05 12:02:55;;;;;;;13.18;6.38;;;5.10;99.90;;;;;;4971929;28;20057;-75
2021/12/05 12:05:30;;;;;;;17.45;6.13;;;5.10;99.90;;;;;;4987792;28;20047;-73
2021/12/05 12:08:09;;;;;;;13.07;5.82;;;5.10;99.90;;;;;;4971744;28;20033;-74
2021/12/05 12:10:39;;;;;;;16.35;5.85;;;5.10;99.90;;;;;;4976680;28;20042;-74
2021/12/05 12:13:24;;;;;;;10.38;4.88;;;5.10;99.90;;;;;;4977416;28;20042;-73
2021/12/05 12:15:58;;;;;;;14.23;5.90;;;5.10;99.90;;;;;;4973068;28;20047;-73
2021/12/05 12:18:29;;;;;;;11.07;5.18;;;5.10;99.90;;;;;;4976111;28;20034;-74
2021/12/05 12:20:57;;;;;;;14.60;5.97;;;5.10;99.90;;;;;;4971349;28;20046;-73
2021/12/05 12:23:23;;;;;;;13.40;5.60;;;5.10;99.90;;;;;;4974968;28;20141;-74
2021/12/05 12:25:53;;;;;;;13.77;5.93;;;5.10;99.90;;;;;;4972107;28;20166;-74
2021/12/05 12:28:19;;;;;;;12.75;5.72;;;5.10;99.90;;;;;;4983592;28;20458;-75
2021/12/05 12:30:52;;;;;;;13.60;5.82;;;5.10;99.90;;;;;;4972790;28;20050;-74
2021/12/05 12:33:25;;;;;;;12.85;5.50;;;5.10;99.90;;;;;;4970370;28;20046;-74
2021/12/05 12:35:51;;;;;;;11.07;5.50;;;5.10;99.90;;;;;;4977732;28;20051;-74
2021/12/05 12:38:30;;;;;;;13.30;5.20;;;5.10;99.90;;;;;;4970782;28;20061;-73
2021/12/05 12:41:01;;;;;;;11.40;5.50;;;5.10;99.90;;;;;;4973674;28;20038;-74
2021/12/05 12:43:52;;;;;;;12.05;5.35;;;5.10;99.90;;;;;;4974137;28;20108;-74
2021/12/05 12:46:23;;;;;;;8.80;5.03;;;5.20;99.90;;;;;;4965117;28;20442;-74
2021/12/05 12:49:15;;;;;;;13.50;5.72;;;5.20;99.90;;;;;;4973627;28;20096;-74
2021/12/05 12:52:03;;;;;;;10.63;4.70;;;5.20;99.90;;;;;;4966166;28;20058;-73
2021/12/05 12:54:43;;;;;;;10.90;5.38;;;5.20;99.90;;;;;;4983923;28;20058;-74
2021/12/05 12:57:19;;;;;;;10.55;5.40;;;5.30;99.90;;;;;;4965460;28;20045;-72
2021/12/05 12:59:58;;;;;;;10.00;5.07;;;5.30;99.90;;;;;;4985486;28;20035;-73
2021/12/05 13:02:38;;;;;;;14.20;5.50;;;5.30;99.90;;;;;;4973604;28;20073;-73
2021/12/05 13:11:04;;;;;;;9.10;4.68;;;5.50;99.90;;;;;;4974935;28;20077;-74
2021/12/05 13:13:32;;;;;;;15.73;5.45;;;5.50;99.90;;;;;;4973197;28;20043;-73
2021/12/05 13:16:26;;;;;;;14.32;5.63;;;5.60;99.90;;;;;;4971249;28;20570;-73
2021/12/05 13:19:22;;;;;;;17.27;5.55;;;5.60;99.90;;;;;;4974358;28;20376;-73
2021/12/05 13:21:52;;;;;;;14.52;5.43;;;5.70;99.90;;;;;;4974546;28;20056;-73
2021/12/05 13:24:27;;;;;;;10.20;5.53;;;5.70;99.90;;;;;;4972031;28;20049;-73
2021/12/05 13:27:01;;;;;;;9.75;4.72;;;5.60;99.90;;;;;;4970694;28;20048;-75
2021/12/05 13:29:28;;;;;;;10.90;5.05;;;5.70;99.90;;;;;;4954509;28;20068;-73
2021/12/05 13:32:25;;;;;;;12.88;5.43;;;5.60;99.90;;;;;;4970610;28;20042;-74
2021/12/05 13:34:51;;;;;;;12.88;4.85;;;5.60;99.90;;;;;;4971055;28;20058;-74
2021/12/05 13:37:27;;;;;;;12.50;4.77;;;5.60;99.90;;;;;;4964305;28;20053;-75
2021/12/05 13:40:12;;;;;;;9.52;4.18;;;5.60;99.90;;;;;;4970720;28;20038;-73
2021/12/05 13:42:50;;;;;;;9.82;5.22;;;5.60;99.90;;;;;;4973250;28;20061;-73
2021/12/05 13:45:28;;;;;;;;;;;5.60;99.90;;;;;;4972717;28;20105;-73
2021/12/05 13:47:58;;;;;;;11.02;4.20;;;5.60;99.90;;;;;;4972651;28;19976;-74
2021/12/05 13:50:56;;;;;;;10.55;5.00;;;5.60;99.90;;;;;;4971185;28;20462;-73
2021/12/05 13:53:28;;;;;;;11.18;4.32;;;5.60;99.90;;;;;;4986448;28;20038;-74
2021/12/05 13:56:01;;;;;;;16.20;5.97;;;5.60;99.90;;;;;;4973168;28;20100;-74
2021/12/05 13:58:38;;;;;;;10.73;4.35;;;5.60;99.90;;;;;;4962673;28;20076;-73
2021/12/05 14:01:34;;;;;;;11.07;4.53;;;5.60;99.90;;;;;;4981930;28;20038;-74
2021/12/05 14:04:19;;;;;;;12.45;4.80;;;5.60;99.90;;;;;;4964186;28;20061;-74
2021/12/05 14:07:05;;;;;;;24.27;5.30;;;5.60;99.90;;;;;;4970646;28;20056;-74
2021/12/05 14:09:36;;;;;;;7.97;4.53;;;5.60;99.90;;;;;;4977589;28;20046;-74
2021/12/05 14:12:11;;;;;;;14.25;5.13;;;5.60;99.90;;;;;;4980540;28;20053;-74
2021/12/05 14:14:49;;;;;;;10.38;5.40;;;5.60;99.90;;;;;;4976893;28;20049;-74
2021/12/05 14:17:24;;;;;;;15.63;4.93;;;5.50;99.90;;;;;;4963761;28;20121;-74
2021/12/05 14:19:54;;;;;;;15.52;5.35;;;5.60;99.90;;;;;;4972227;28;20056;-74
2021/12/05 14:22:22;;;;;;;12.23;5.22;;;5.50;99.90;;;;;;4970891;28;20045;-73
2021/12/05 14:24:55;;;;;;;10.50;5.53;;;5.50;99.90;;;;;;4972881;28;20046;-73
2021/12/05 14:27:27;;;;;;;8.13;4.50;;;5.50;99.90;;;;;;4985399;28;20062;-73
2021/12/05 14:29:53;;;;;;;10.73;4.93;;;5.50;99.90;;;;;;4970652;28;20133;-73
2021/12/05 14:32:26;;;;;;;10.95;5.47;;;5.50;99.90;;;;;;4988204;23;20034;-77
2021/12/05 14:35:00;;;;;;;15.48;5.70;;;5.50;99.90;;;;;;5002804;28;20065;-77
2021/12/05 14:37:28;;;;;;;13.48;5.70;;;5.50;99.90;;;;;;5004363;28;20124;-77
2021/12/05 14:40:09;;;;;;;11.05;5.72;;;5.40;99.90;;;;;;4975760;28;20046;-77
2021/12/05 14:42:38;;;;;;;12.50;5.50;;;5.40;99.90;;;;;;4983949;28;20073;-77
2021/12/05 14:45:11;;;;;;;12.77;5.18;;;5.40;99.90;;;;;;4990379;28;20135;-77
2021/12/05 14:47:40;;;;;;;13.68;5.45;;;5.40;99.90;;;;;;4998868;28;20049;-77
2021/12/05 14:50:15;;;;;;;10.82;5.60;;;5.40;99.90;;;;;;4984629;28;20096;-77
2021/12/05 14:52:43;;;;;;;10.60;5.18;;;5.40;99.90;;;;;;4990896;28;20050;-77
2021/12/05 14:55:11;;;;;;;16.45;5.97;;;5.40;99.90;;;;;;4990836;28;20057;-77
2021/12/05 14:57:59;;;;;;;13.80;6.28;;;5.40;99.90;;;;;;4990097;28;20030;-77
2021/12/05 15:00:25;;;;;;;;;;;5.40;99.90;;;;;;4993236;28;20494;-77
2021/12/05 15:03:07;;;;;;;10.43;5.50;;;5.40;99.90;;;;;;4986578;28;20003;-77
2021/12/05 15:05:35;;;;;;;13.07;6.22;;;5.30;99.90;;;;;;4988129;28;20041;-77
2021/12/05 15:08:06;;;;;;;11.07;5.57;;;5.30;99.90;;;;;;4991616;28;20297;-77
2021/12/05 15:10:32;;;;;;;8.88;5.50;;;5.30;99.90;;;;;;4990802;28;20054;-77
2021/12/05 15:12:58;;;;;;;11.98;6.05;;;5.30;99.90;;;;;;4988768;28;20498;-77
2021/12/05 15:15:25;;;;;;;10.00;5.80;;;5.30;99.90;;;;;;4991273;28;20570;-77
2021/12/05 15:17:53;;;;;;;11.52;6.15;;;5.30;99.90;;;;;;4992656;28;20355;-77
2021/12/05 15:20:22;;;;;;;13.52;5.68;;;5.30;99.90;;;;;;4992641;28;20423;-77
2021/12/05 15:22:55;;;;;;;12.13;5.47;;;5.30;99.90;;;;;;5007336;28;20045;-77
2021/12/05 15:25:24;;;;;;;14.02;6.70;;;5.30;99.90;;;;;;4973077;28;20120;-76
2021/12/05 15:27:50;;;;;;;11.90;7.32;;;5.20;99.90;;;;;;4988446;28;20053;-77
2021/12/05 15:30:32;;;;;;;16.08;6.90;;;5.20;99.90;;;;;;4992920;28;20506;-77
2021/12/05 15:33:04;;;;;;;13.40;6.75;;;5.20;99.90;;;;;;5008684;28;20409;-77
2021/12/05 15:35:30;;;;;;;12.93;6.70;;;5.20;99.90;;;;;;4986423;28;20120;-77
2021/12/05 15:38:09;;;;;;;14.60;7.40;;;5.20;99.90;;;;;;4992400;28;20045;-76
2021/12/05 15:40:39;;;;;;;14.23;7.82;;;5.20;99.90;;;;;;4989128;28;20042;-77
2021/12/05 15:43:08;;;;;;;22.02;10.10;;;5.20;99.90;;;;;;5004522;28;20165;-77
2021/12/05 15:45:36;;;;;;;16.90;7.82;;;5.20;99.90;;;;;;4986101;28;20054;-77
2021/12/05 15:48:01;;;;;;;15.45;8.15;;;5.20;99.90;;;;;;4992659;28;20046;-77
2021/12/05 15:50:32;;;;;;;21.73;7.70;;;5.10;99.90;;;;;;4993853;28;20132;-77
2021/12/05 15:53:07;;;;;;;16.48;8.13;;;5.20;99.90;;;;;;4984692;28;20212;-76
2021/12/05 15:55:46;;;;;;;21.60;7.15;;;5.20;99.90;;;;;;4982234;28;20046;-77
2021/12/05 15:58:19;;;;;;;12.40;6.85;;;5.20;99.90;;;;;;5003554;28;20045;-77
2021/12/05 16:00:54;;;;;;;11.02;6.35;;;5.10;99.90;;;;;;4991231;28;20038;-77
2021/12/05 16:03:24;;;;;;;11.45;6.43;;;5.10;99.90;;;;;;5000718;28;20173;-77
2021/12/05 16:05:59;;;;;;;13.85;6.55;;;5.10;99.90;;;;;;4989065;28;20568;-77
2021/12/05 16:08:28;;;;;;;12.98;6.65;;;5.10;99.90;;;;;;4985814;28;20050;-77
2021/12/05 16:10:58;;;;;;;14.15;6.72;;;5.10;99.90;;;;;;4991725;28;20051;-77
2021/12/05 16:13:41;;;;;;;12.43;6.30;;;5.10;99.90;;;;;;4989436;28;20046;-77
2021/12/05 16:16:23;;;;;;;13.00;7.65;;;5.10;99.90;;;;;;4983466;28;20050;-77
2021/12/05 16:18:53;;;;;;;13.57;7.18;;;5.10;99.90;;;;;;4987845;28;20042;-77
2021/12/05 16:21:22;;;;;;;11.75;6.30;;;5.10;99.90;;;;;;4987167;28;20044;-77
2021/12/05 16:23:49;;;;;;;15.77;6.85;;;5.10;99.90;;;;;;5004662;28;20395;-77
2021/12/05 16:26:33;;;;;;;13.13;7.00;;;5.00;99.90;;;;;;4972579;28;20042;-77
2021/12/05 16:29:03;;;;;;;13.20;6.85;;;5.00;99.90;;;;;;4988910;28;20406;-77
2021/12/05 16:31:33;;;;;;;14.65;6.32;;;5.00;99.90;;;;;;4990326;28;20131;-77
2021/12/05 16:34:12;;;;;;;12.60;6.75;;;5.00;99.90;;;;;;4988433;28;20050;-77
2021/12/05 16:36:52;;;;;;;20.08;7.93;;;5.00;99.90;;;;;;4990441;28;20117;-77
2021/12/05 16:39:21;;;;;;;15.40;7.63;;;5.00;99.90;;;;;;4986760;28;20042;-77
2021/12/05 16:41:53;;;;;;;16.50;8.00;;;5.00;99.90;;;;;;4990454;28;20510;-77
2021/12/05 16:44:22;;;;;;;15.18;8.48;;;5.00;99.90;;;;;;4983845;28;20481;-77
2021/12/05 16:46:55;;;;;;;18.33;7.72;;;5.00;99.90;;;;;;4990918;28;20096;-77
2021/12/05 16:49:23;;;;;;;14.43;8.00;;;5.00;99.90;;;;;;4991086;28;20045;-77
2021/12/05 16:51:58;;;;;;;12.35;7.28;;;5.00;99.90;;;;;;5008742;28;20041;-77
2021/12/05 16:54:32;;;;;;;17.23;8.07;;;5.00;99.90;;;;;;5001589;28;20042;-77
2021/12/05 16:57:09;;;;;;;18.75;8.75;;;5.00;99.90;;;;;;4988496;28;22465;-77
2021/12/05 16:59:42;;;;;;;22.45;9.30;;;5.00;99.90;;;;;;4983812;28;20529;-77
2021/12/05 17:02:27;;;;;;;14.63;8.02;;;5.00;99.90;;;;;;4988148;28;20289;-77
2021/12/05 17:05:18;;;;;;;18.60;7.88;;;5.00;99.90;;;;;;5000681;28;20072;-77
2021/12/05 17:08:11;;;;;;;16.75;8.32;;;5.00;99.90;;;;;;5005506;28;20468;-77
2021/12/05 17:10:42;;;;;;;19.67;8.38;;;5.00;99.90;;;;;;4978614;28;20470;-77
2021/12/05 17:13:22;;;;;;;20.52;9.43;;;5.00;99.90;;;;;;5002401;28;20153;-77
2021/12/05 17:15:54;;;;;;;19.48;9.48;;;5.00;99.90;;;;;;4985135;28;20049;-77
2021/12/05 17:18:30;;;;;;;19.73;10.65;;;5.00;99.90;;;;;;4988337;28;20096;-77
2021/12/05 17:21:02;;;;;;;22.17;10.15;;;5.00;99.90;;;;;;5007865;28;20088;-77
2021/12/05 17:23:33;;;;;;;21.23;10.68;;;4.90;99.90;;;;;;4988750;28;20574;-77
2021/12/05 17:26:16;;;;;;;27.65;13.23;;;4.90;99.90;;;;;;4985507;28;20057;-77
2021/12/05 17:29:06;;;;;;;26.00;10.80;;;4.90;99.90;;;;;;4984753;28;20088;-77
2021/12/05 17:31:38;;;;;;;27.02;11.52;;;4.90;99.90;;;;;;4968637;28;20053;-77
2021/12/05 17:34:11;;;;;;;25.50;11.18;;;4.90;99.90;;;;;;4991275;28;20056;-77
2021/12/05 17:36:42;;;;;;;24.98;12.70;;;4.90;99.90;;;;;;4973036;28;20045;-76
2021/12/05 17:39:12;;;;;;;28.05;12.23;;;4.90;99.90;;;;;;4986275;28;20070;-76
2021/12/05 17:41:39;;;;;;;28.92;12.10;;;4.90;99.90;;;;;;4989255;28;20052;-77
2021/12/05 17:44:06;;;;;;;24.67;12.55;;;4.90;99.90;;;;;;4986251;28;20054;-77
2021/12/05 17:46:33;;;;;;;24.25;11.85;;;4.90;99.90;;;;;;4982789;28;20491;-77
2021/12/05 17:49:01;;;;;;;26.98;12.38;;;4.90;99.90;;;;;;5004454;28;20453;-77
2021/12/05 17:51:34;;;;;;;33.28;13.48;;;4.90;99.90;;;;;;4986467;28;20131;-77
2021/12/05 17:54:00;;;;;;;29.95;13.95;;;4.80;99.90;;;;;;5001211;28;20077;-77
2021/12/05 17:56:43;;;;;;;32.55;14.20;;;4.80;99.90;;;;;;4986408;28;20041;-77
2021/12/05 17:59:13;;;;;;;34.92;13.88;;;4.80;99.90;;;;;;4983935;28;20065;-77
2021/12/05 18:04:29;;;;;;;29.98;13.82;;;4.70;99.90;;;;;;4989890;28;20054;-77
2021/12/05 18:06:56;;;;;;;33.78;15.95;;;4.70;99.90;;;;;;4985302;28;20065;-77
2021/12/05 18:09:22;;;;;;;54.78;24.15;;;4.70;99.90;;;;;;5004834;28;20121;-77
2021/12/05 18:11:49;;;;;;;41.75;17.58;;;4.70;99.90;;;;;;5005149;28;20145;-77
2021/12/05 18:14:15;;;;;;;31.33;15.48;;;4.70;99.90;;;;;;4973647;28;20076;-77
2021/12/05 18:16:41;;;;;;;33.80;14.90;;;4.70;99.90;;;;;;5006883;28;20478;-77
2021/12/05 18:19:13;;;;;;;29.73;14.27;;;4.70;99.90;;;;;;4972501;28;20042;-77
2021/12/05 18:21:40;;;;;;;33.30;14.45;;;4.70;99.90;;;;;;5002395;28;20050;-77
2021/12/05 18:24:10;;;;;;;33.20;15.50;;;4.70;99.90;;;;;;4985105;28;20132;-77
2021/12/05 18:26:38;;;;;;;39.33;17.23;;;4.70;99.90;;;;;;4989787;28;20121;-77
2021/12/05 18:29:07;;;;;;;30.08;14.85;;;4.70;99.90;;;;;;5007091;28;20232;-77
2021/12/05 18:31:34;;;;;;;35.63;15.43;;;4.70;99.90;;;;;;4987950;28;20057;-77
2021/12/05 18:34:13;;;;;;;36.60;16.88;;;4.60;99.90;;;;;;4977070;28;20057;-76
2021/12/05 18:36:40;;;;;;;36.03;15.15;;;4.70;99.90;;;;;;4972154;28;20124;-77